Jim Hamilton L.B. Owens Airport
KCUB : now visible

Aeroporto :











RITROVATECI SU...

 
LOGIN :

Iscrizione | Disclaimer

   EN    FR    IT 

 









Sommario :    VFR   VFR Marginale   IFR   IFR Intensivo   IFR Molto Intensivo
Visibilità : 
Base nubi : 
>= 8 km
>= 3000ft
5 / 8 km
1000 / 3000 ft
1500m / 5 km
500 / 1000 ft
800 / 1500m
200 / 500 ft
< 800m
< 200 ft
Simboli :   Temporali  Nebbia  Neve Forte  Precipitazioni Forti  Vento > 20 kt






- Altitudine del aeroporto : 193 ft


KCUB - Jim Hamilton L.B. Owens

ULTIMO METAR :
  • 181153Z AUTO 00000KT 10SM CLR 07/05 A3003 RMK AO2 SLP167 T00720050 10094 20067 51004

METARs OBSOLETI :
  • 181053Z AUTO 00000KT 10SM CLR 07/05 A3003 RMK AO2 SLP166 T00720050
  • 180953Z AUTO 00000KT 10SM CLR 07/06 A3002 RMK AO2 SLP165 T00720056

TAF KCUB
Valido dal 18 a 12 ore il 19 a 12 ore UTC


181122Z 1812/1912 00000KT P6SM SKC
FM181400 06005KT P6SM SCT250
FM182000 09005KT P6SM BKN250
FM191000 07005KT P6SM OVC100



MetMap, La meteo Aeronautica in un colpo d'occhio ! - Copyright ORBIFLY Dicembre 2007 - Disclaimer

ORBIFLY MET'MAP TEAM :

Programmazione e sviluppo : Alexandra Zaïnal
Concezione e sviluppo : Baudouin d'Aumeries
Co-Programmazione e sviluppo : Marc-Olivier Méhu
Supporto tecnico e logistico : Manuel Goepfert
Aiuto per la traduzione : Arnaldo La Scala

Contatto : metmap@orbifly.com




FONTI E CREDITI :

   NOAA       Earth
Advisory